createdAt,value
2019-04-23T03:32:45.759Z,0.09
2019-04-23T03:34:19.771Z,0.14
2019-04-23T03:36:33.697Z,0.14
2019-04-23T03:37:23.236Z,0.22
2019-04-23T03:38:35.670Z,0.27
2019-04-23T03:39:05.331Z,0.27
2019-04-23T03:42:37.237Z,0.45
2019-04-23T03:43:25.971Z,0.54
2019-04-23T03:44:25.497Z,0.68
2019-04-23T03:45:26.657Z,0.76
2019-04-23T03:46:24.276Z,0.94
2019-04-23T03:47:32.857Z,1.03
2019-04-23T03:49:15.273Z,1.44
2019-04-23T03:50:23.371Z,1.71
2019-04-23T03:51:34.114Z,2.03
2019-04-23T03:53:32.694Z,2.92
2019-04-23T03:55:28.198Z,4.05
2019-04-23T03:56:45.088Z,4.82
2019-04-23T03:57:31.069Z,5.62
2019-04-23T04:03:51.709Z,14.94
2019-04-23T04:04:24.798Z,17.46
2019-04-23T04:05:33.706Z,20.52
2019-04-23T04:08:25.958Z,33.84
2019-04-23T04:10:28.922Z,47.16
2019-04-23T04:11:21.983Z,55.08
2019-04-23T04:12:29.370Z,64.80
2019-04-23T04:13:31.444Z,75.24
2019-04-23T04:14:38.109Z,86.40
2019-04-23T04:15:46.279Z,98.64
2019-04-23T04:16:28.434Z,111.60
2019-04-23T04:17:41.666Z,124.56
2019-04-23T04:18:38.593Z,136.08
2019-04-23T04:19:34.009Z,148.32
2019-04-23T04:20:32.990Z,162.72
2019-04-23T04:22:39.960Z,195.84
2019-04-23T04:24:34.669Z,231.84
2019-04-23T04:25:33.779Z,252.00
2019-04-23T04:26:55.805Z,273.60
2019-04-23T04:27:38.402Z,296.64
2019-04-23T04:28:38.822Z,321.12
2019-04-23T04:29:39.587Z,347.04
2019-04-23T04:30:38.012Z,374.40
2019-04-23T04:31:42.445Z,400.32
2019-04-23T04:32:33.709Z,429.12
2019-04-23T04:33:48.920Z,460.80
2019-04-23T04:35:47.694Z,527.04
2019-04-23T04:38:40.129Z,630.72
2019-04-23T04:39:42.886Z,662.40
2019-04-23T04:40:42.439Z,694.08
2019-04-23T04:41:40.559Z,725.76
2019-04-23T04:42:46.850Z,760.32
2019-04-23T04:44:11.614Z,789.12
2019-04-23T04:47:42.191Z,927.36
2019-04-23T04:48:50.673Z,967.68
2019-04-23T04:49:54.796Z,1002.24
2019-04-23T04:51:00.450Z,1128.96
2019-04-23T04:52:48.818Z,1209.60
2019-04-23T04:54:30.936Z,1278.72
2019-04-23T04:55:48.087Z,1301.76
2019-04-23T04:56:51.314Z,1330.56
2019-04-23T04:58:46.816Z,1376.64
2019-04-23T04:59:54.190Z,1416.96
2019-04-23T05:01:03.949Z,1451.52
2019-04-23T05:01:52.089Z,1474.56
2019-04-23T05:03:05.902Z,1520.64
2019-04-23T05:04:07.317Z,1566.72
2019-04-23T05:07:02.471Z,1716.48
2019-04-23T05:09:55.185Z,1866.24
2019-04-23T05:11:07.784Z,1912.32
2019-04-23T05:11:51.886Z,1969.92
2019-04-23T05:12:43.829Z,2027.52
2019-04-23T05:15:50.188Z,2200.32
2019-04-23T05:16:50.556Z,2257.92
2019-04-23T05:18:00.285Z,2315.52
2019-04-23T05:18:53.535Z,2373.12
2019-04-23T05:19:52.762Z,2430.72
2019-04-23T05:20:58.199Z,2499.84
2019-04-23T05:22:00.543Z,2568.96
2019-04-23T05:23:05.981Z,2626.56
2019-04-23T05:23:54.361Z,2695.68
2019-04-23T05:24:52.531Z,2753.28
2019-04-23T05:25:49.940Z,2799.36
2019-04-23T05:26:51.511Z,2856.96
2019-04-23T05:28:05.974Z,2914.56
2019-04-23T05:31:53.512Z,3202.56
2019-04-23T05:32:57.978Z,3317.76
2019-04-23T05:33:59.916Z,3432.96
2019-04-23T05:35:00.009Z,3594.24
2019-04-23T05:38:08.742Z,3686.40
2019-04-23T05:40:00.431Z,3778.56
2019-04-23T05:41:10.378Z,3847.68
2019-04-23T05:42:13.696Z,3916.80
2019-04-23T05:42:58.423Z,4008.96
2019-04-23T05:44:04.672Z,4078.08
2019-04-23T05:46:09.658Z,4239.36
2019-04-23T05:46:59.901Z,4331.52
2019-04-23T05:48:06.865Z,4400.64
2019-04-23T05:49:09.704Z,4446.72
2019-04-23T05:50:12.685Z,4515.84
2019-04-23T05:51:09.625Z,4584.96
2019-04-23T05:52:04.463Z,4677.12
2019-04-23T05:53:07.840Z,4746.24
2019-04-23T05:54:08.765Z,4815.36
2019-04-23T05:55:09.124Z,4907.52
2019-04-23T05:57:01.982Z,5068.80
2019-04-23T05:58:08.881Z,5160.96
2019-04-23T06:00:13.849Z,5322.24
2019-04-23T06:01:28.189Z,5414.40
2019-04-23T06:02:04.781Z,5529.60
2019-04-23T06:03:14.816Z,5667.84
2019-04-23T06:04:24.521Z,5783.04
2019-04-23T06:05:13.100Z,5898.24
2019-04-23T06:06:10.840Z,6036.48
2019-04-23T06:07:22.060Z,6174.72
2019-04-23T06:08:11.418Z,6266.88
2019-04-23T06:09:25.195Z,6359.04
2019-04-23T06:10:13.311Z,6497.28
2019-04-23T06:11:22.470Z,6635.52
2019-04-23T06:12:26.597Z,6773.76
2019-04-23T06:13:16.806Z,6958.08
2019-04-23T06:15:11.522Z,7142.40
2019-04-23T06:16:25.297Z,7188.48
2019-04-23T06:17:19.808Z,7280.64
2019-04-23T06:18:24.992Z,7418.88
2019-04-23T06:20:15.146Z,7603.20
2019-04-23T06:21:20.458Z,7741.44
2019-04-23T06:22:26.859Z,7925.76
2019-04-23T06:23:26.938Z,8202.24
2019-04-23T06:24:29.276Z,8478.72
2019-04-23T06:25:33.671Z,8709.12
2019-04-23T06:26:42.945Z,8893.44
2019-04-23T06:27:22.063Z,9262.08
2019-04-23T06:28:24.525Z,9630.72
2019-04-23T06:29:26.783Z,9722.88
2019-04-23T06:29:31.908Z,9676.80
2019-04-23T06:30:40.802Z,9308.16
2019-04-23T06:31:38.121Z,9031.68
2019-04-23T06:32:31.265Z,8801.28
2019-04-23T06:33:32.388Z,8755.20
2019-04-23T06:34:37.728Z,8801.28
2019-04-23T06:35:34.017Z,8939.52
2019-04-23T06:36:33.331Z,9031.68
2019-04-23T06:37:58.734Z,9123.84
2019-04-23T06:38:53.287Z,9262.08
2019-04-23T06:39:39.707Z,9538.56
2019-04-23T06:40:34.069Z,9907.20
2019-04-23T06:41:41.825Z,10321.92
2019-04-23T06:42:31.249Z,10967.04
2019-04-23T06:43:47.561Z,11381.76
2019-04-23T06:44:51.394Z,11520.00
2019-04-23T06:45:32.538Z,11289.60
2019-04-23T06:46:44.630Z,11013.12
2019-04-23T06:47:35.620Z,10828.80
2019-04-23T06:48:40.769Z,11013.12
2019-04-23T06:49:47.299Z,11197.44
2019-04-23T06:50:46.188Z,11105.28
2019-04-23T06:51:45.681Z,10967.04
2019-04-23T06:52:31.817Z,11059.20
2019-04-23T06:53:36.105Z,10920.96
2019-04-23T06:54:42.436Z,10782.72
2019-04-23T06:55:44.571Z,10736.64
2019-04-23T06:56:54.383Z,10644.48
2019-04-23T06:57:33.694Z,10598.40
2019-04-23T06:58:43.284Z,10506.24
2019-04-23T06:59:41.385Z,10506.24
2019-04-23T07:00:42.104Z,10506.24
2019-04-23T07:01:51.090Z,10506.24
2019-04-23T07:02:44.411Z,10506.24
2019-04-23T07:03:43.230Z,10552.32
2019-04-23T07:04:50.297Z,10690.56
2019-04-23T07:05:57.873Z,10874.88
2019-04-23T07:06:47.133Z,10967.04
2019-04-23T07:07:54.838Z,11151.36
2019-04-23T07:09:44.076Z,11473.92
2019-04-23T07:10:55.502Z,11427.84
2019-04-23T07:11:42.820Z,11381.76
2019-04-23T07:12:47.149Z,11381.76
2019-04-23T07:14:51.349Z,11566.08
2019-04-23T07:15:57.143Z,11658.24
2019-04-23T07:16:46.976Z,11658.24
2019-04-23T07:17:51.169Z,11658.24
2019-04-23T07:19:46.720Z,11612.16
2019-04-23T07:20:53.171Z,11658.24
2019-04-23T07:22:03.378Z,11704.32
2019-04-23T07:23:03.571Z,11750.40
2019-04-23T07:24:01.742Z,11796.48
2019-04-23T07:24:57.611Z,11980.80
2019-04-23T07:26:03.865Z,11980.80
2019-04-23T07:26:45.401Z,12072.96
2019-04-23T07:27:59.052Z,12165.12
2019-04-23T07:29:13.382Z,12257.28
2019-04-23T07:30:01.852Z,12349.44
2019-04-23T07:31:00.234Z,12441.60
2019-04-23T07:33:01.867Z,12625.92
2019-04-23T07:34:01.204Z,12718.08
2019-04-23T07:36:01.760Z,12810.24
2019-04-23T07:36:58.807Z,12994.56
2019-04-23T07:38:01.815Z,13086.72
2019-04-23T07:39:06.088Z,13271.04
2019-04-23T07:40:21.474Z,13363.20
2019-04-23T07:41:11.274Z,13547.52
2019-04-23T07:42:08.101Z,13639.68
2019-04-23T07:43:03.295Z,13824.00
2019-04-23T07:44:12.929Z,14008.32
2019-04-23T07:45:01.887Z,14192.64
2019-04-23T07:46:10.301Z,14284.80
2019-04-23T07:49:04.569Z,14376.96
2019-04-23T07:50:19.111Z,14469.12
2019-04-23T07:51:03.727Z,14469.12
2019-04-23T07:52:12.964Z,14469.12
2019-04-23T07:53:13.103Z,14653.44
2019-04-23T07:54:11.338Z,14837.76
2019-04-23T07:55:09.750Z,15022.08
2019-04-23T07:57:15.271Z,15482.88
2019-04-23T07:58:14.293Z,15667.20
2019-04-23T07:59:16.058Z,15759.36
2019-04-23T08:00:10.743Z,15943.68
2019-04-23T08:01:08.221Z,16312.32
2019-04-23T08:02:17.839Z,16404.48
2019-04-23T08:03:17.756Z,16404.48
2019-04-23T08:04:10.587Z,16588.80
2019-04-23T08:05:21.609Z,16957.44
2019-04-23T08:06:10.092Z,17510.40
2019-04-23T08:07:16.222Z,18063.36
2019-04-23T08:08:24.521Z,18800.64
2019-04-23T08:09:10.846Z,18984.96
2019-04-23T08:10:14.209Z,19261.44
2019-04-23T08:12:19.363Z,19998.72
2019-04-23T08:13:15.596Z,19998.72
2019-04-23T08:14:08.627Z,19814.40
2019-04-23T08:15:14.936Z,19814.40
2019-04-23T08:17:16.107Z,20551.68
2019-04-23T08:18:18.612Z,21104.64
2019-04-23T08:19:20.785Z,21473.28
2019-04-23T08:20:11.252Z,22302.72
2019-04-23T08:21:32.168Z,22210.56
2019-04-23T08:22:28.637Z,21934.08
2019-04-23T08:23:16.490Z,21934.08
2019-04-23T08:24:17.025Z,22394.88
2019-04-23T08:25:23.820Z,23316.48
2019-04-23T08:26:29.572Z,24145.92
2019-04-23T08:27:18.170Z,23040.00
2019-04-23T08:28:37.168Z,23500.80
2019-04-23T08:30:16.029Z,24883.20
2019-04-23T08:31:27.497Z,24514.56
2019-04-23T08:32:33.258Z,24330.24
2019-04-23T08:33:23.299Z,24145.92
2019-04-23T08:34:32.566Z,24330.24
2019-04-23T08:35:19.723Z,25804.80
2019-04-23T08:36:31.269Z,28385.28
2019-04-23T08:37:36.527Z,28753.92
2019-04-23T08:38:29.441Z,27648.00
2019-04-23T08:39:37.259Z,28569.60
2019-04-23T08:40:27.614Z,29122.56
2019-04-23T08:43:36.039Z,27832.32
2019-04-23T08:44:44.971Z,28200.96
2019-04-23T08:45:28.017Z,25620.48
2019-04-23T08:46:31.736Z,25620.48
2019-04-23T08:47:27.066Z,25804.80
2019-04-23T08:49:36.178Z,26357.76
2019-04-23T08:50:35.445Z,26726.40
2019-04-23T08:52:32.961Z,25251.84
2019-04-23T08:55:41.401Z,23592.96
2019-04-23T08:56:41.135Z,24330.24
2019-04-23T08:57:32.147Z,24698.88
2019-04-23T08:58:31.185Z,23961.60
2019-04-23T08:59:38.777Z,23592.96
2019-04-23T09:00:37.276Z,23777.28
2019-04-23T09:01:49.194Z,23500.80
2019-04-23T09:03:34.494Z,23500.80
2019-04-23T09:04:49.572Z,23500.80
2019-04-23T09:06:34.978Z,23316.48
2019-04-23T09:07:35.841Z,23500.80
2019-04-23T09:08:49.626Z,24514.56
2019-04-23T09:09:46.478Z,24698.88
2019-04-23T09:10:46.242Z,23592.96
2019-04-23T09:12:41.672Z,22947.84
2019-04-23T09:14:51.252Z,22763.52
2019-04-23T09:15:44.606Z,22671.36
2019-04-23T09:16:46.724Z,22026.24
2019-04-23T09:17:47.688Z,22487.04
2019-04-23T09:18:57.250Z,23961.60
2019-04-23T09:20:13.297Z,23592.96
2019-04-23T09:20:55.052Z,24145.92
2019-04-23T09:22:03.433Z,23777.28
2019-04-23T09:22:50.079Z,23592.96
2019-04-23T09:25:06.722Z,24330.24
2019-04-23T09:25:57.665Z,24330.24
2019-04-23T09:27:09.701Z,23592.96
2019-04-23T09:27:59.456Z,22947.84
2019-04-23T09:33:06.257Z,23040.00
2019-04-23T09:34:07.515Z,23408.64
2019-04-23T09:35:20.303Z,23777.28
2019-04-23T09:36:08.170Z,23777.28
2019-04-23T09:37:11.803Z,23777.28
2019-04-23T09:38:07.093Z,23132.16
2019-04-23T09:39:07.556Z,22671.36
2019-04-23T09:40:16.745Z,22855.68
2019-04-23T09:41:22.150Z,22487.04
2019-04-23T09:42:08.901Z,22302.72
2019-04-23T09:45:11.110Z,22394.88
2019-04-23T09:46:13.696Z,22302.72
2019-04-23T09:47:16.017Z,22302.72
2019-04-23T09:48:18.433Z,22487.04
2019-04-23T09:49:16.196Z,22118.40
2019-04-23T09:50:15.750Z,22118.40
2019-04-23T09:51:10.262Z,22210.56
2019-04-23T09:52:14.988Z,22302.72
2019-04-23T09:53:19.150Z,22579.20
2019-04-23T09:54:25.198Z,22855.68
2019-04-23T09:55:22.445Z,23040.00
2019-04-23T09:56:14.143Z,23316.48
2019-04-23T09:57:10.549Z,23500.80
2019-04-23T09:58:13.828Z,23592.96
2019-04-23T09:59:34.170Z,23777.28
2019-04-23T10:00:16.857Z,24330.24
2019-04-23T10:01:20.895Z,24514.56
2019-04-23T10:02:13.149Z,24514.56
2019-04-23T10:03:07.609Z,24883.20
2019-04-23T10:04:00.328Z,25436.16
2019-04-23T10:05:04.530Z,25989.12
2019-04-23T10:06:01.022Z,26357.76
2019-04-23T10:07:01.698Z,27095.04
2019-04-23T10:08:01.733Z,27463.68
2019-04-23T10:08:54.018Z,28200.96
2019-04-23T10:09:51.772Z,28938.24
2019-04-23T10:10:51.368Z,29491.20
2019-04-23T10:11:51.236Z,30044.16
2019-04-23T10:12:51.288Z,30781.44
2019-04-23T10:13:52.859Z,31518.72
2019-04-23T10:15:01.236Z,31887.36
2019-04-23T10:15:53.456Z,32256.00
2019-04-23T10:16:53.356Z,32808.96
2019-04-23T10:17:54.264Z,33730.56
2019-04-23T10:18:53.349Z,33914.88
2019-04-23T10:19:55.046Z,33730.56
2019-04-23T10:20:54.283Z,33730.56
2019-04-23T10:21:55.409Z,34283.52
2019-04-23T10:22:56.557Z,35020.80
2019-04-23T10:23:55.196Z,35573.76
2019-04-23T10:24:55.368Z,36126.72
2019-04-23T10:25:56.262Z,36126.72
2019-04-23T10:26:55.912Z,36864.00
2019-04-23T10:28:01.171Z,37416.96
2019-04-23T10:28:56.229Z,38338.56
2019-04-23T10:29:56.215Z,39260.16
2019-04-23T10:30:56.598Z,39260.16
2019-04-23T10:31:57.763Z,39444.48
2019-04-23T10:32:57.873Z,39444.48
2019-04-23T10:33:57.954Z,39444.48
2019-04-23T10:35:13.509Z,39444.48
2019-04-23T10:36:03.219Z,39444.48
2019-04-23T10:36:59.595Z,39813.12
2019-04-23T10:38:04.202Z,39997.44
2019-04-23T10:39:04.920Z,38891.52
2019-04-23T10:40:03.526Z,38522.88
2019-04-23T10:41:02.156Z,38338.56
2019-04-23T10:42:03.349Z,37785.60
2019-04-23T10:43:03.417Z,38154.24
2019-04-23T10:44:02.828Z,37969.92
2019-04-23T10:45:16.615Z,38154.24
2019-04-23T10:46:21.803Z,39075.84
2019-04-23T10:47:34.044Z,39997.44
2019-04-23T10:48:33.074Z,42024.96
2019-04-23T10:49:52.192Z,41287.68
2019-04-23T10:50:40.289Z,41472.00
2019-04-23T10:51:37.746Z,41472.00
2019-04-23T10:52:30.818Z,41472.00
2019-04-23T10:53:45.945Z,41656.32
2019-04-23T10:55:41.002Z,42577.92
2019-04-23T10:57:31.669Z,44052.48
2019-04-23T10:58:36.803Z,44605.44
2019-04-23T10:59:37.289Z,44052.48
2019-04-23T11:00:37.257Z,44974.08
2019-04-23T11:01:35.891Z,46080.00
2019-04-23T11:02:39.738Z,45895.68
2019-04-23T11:03:52.456Z,45895.68
2019-04-23T11:04:47.558Z,45711.36
2019-04-23T11:06:41.355Z,45342.72
2019-04-23T11:08:34.831Z,45711.36
2019-04-23T11:10:32.878Z,47185.92
2019-04-23T11:11:48.339Z,47554.56
2019-04-23T11:12:42.126Z,47923.20
2019-04-23T11:13:53.608Z,49029.12
2019-04-23T11:14:49.871Z,48291.84
2019-04-23T11:18:52.167Z,52346.88
2019-04-23T11:19:52.168Z,51240.96
2019-04-23T11:20:43.802Z,51978.24
2019-04-23T11:21:46.472Z,50135.04
2019-04-23T11:22:46.518Z,50135.04
2019-04-23T11:23:34.426Z,50135.04
2019-04-23T11:25:02.182Z,49397.76
2019-04-23T11:26:49.576Z,48291.84
2019-04-23T11:27:58.526Z,50135.04
2019-04-23T11:28:46.653Z,52715.52
2019-04-23T11:29:48.684Z,53452.80
2019-04-23T11:30:41.589Z,52346.88
2019-04-23T11:32:57.090Z,52346.88
2019-04-23T11:33:57.442Z,50135.04
2019-04-23T11:35:04.963Z,49029.12
2019-04-23T11:36:06.237Z,49397.76
2019-04-23T11:36:54.323Z,49029.12
2019-04-23T11:38:58.516Z,47554.56
2019-04-23T11:39:49.591Z,46264.32
2019-04-23T11:40:41.712Z,46632.96
2019-04-23T11:43:11.485Z,46817.28
2019-04-23T11:43:49.016Z,47185.92
2019-04-23T11:45:57.622Z,48291.84
2019-04-23T11:49:59.482Z,49029.12
2019-04-23T11:51:26.235Z,50872.32
2019-04-23T11:52:01.506Z,53084.16
2019-04-23T11:53:58.068Z,50135.04
2019-04-23T11:55:55.733Z,47923.20
2019-04-23T11:58:08.263Z,47185.92
2019-04-23T11:58:52.434Z,47001.60
2019-04-23T12:01:04.732Z,49397.76
2019-04-23T12:03:02.797Z,48660.48
2019-04-23T12:04:08.605Z,48291.84
2019-04-23T12:05:15.226Z,47554.56
2019-04-23T12:06:07.889Z,47554.56
2019-04-23T12:07:00.106Z,46632.96
2019-04-23T12:08:03.555Z,47185.92
2019-04-23T12:08:57.124Z,47554.56
2019-04-23T12:11:24.158Z,46632.96
2019-04-23T12:12:11.178Z,45342.72
2019-04-23T12:12:17.264Z,45527.04
2019-04-23T12:13:11.948Z,45895.68
2019-04-23T12:15:13.415Z,47554.56
2019-04-23T12:16:13.036Z,48291.84
2019-04-23T12:17:18.646Z,48660.48
2019-04-23T12:18:10.049Z,47185.92
2019-04-23T12:19:33.092Z,47554.56
2019-04-23T12:20:28.642Z,48291.84
2019-04-23T12:21:12.595Z,49397.76
2019-04-23T12:22:17.491Z,49766.40
2019-04-23T12:24:28.225Z,47923.20
2019-04-23T12:26:22.855Z,47185.92
2019-04-23T12:28:14.169Z,47185.92
2019-04-23T12:29:23.372Z,47185.92
2019-04-23T12:30:16.461Z,47185.92
2019-04-23T12:31:17.265Z,47185.92
2019-04-23T12:32:35.687Z,48291.84
2019-04-23T12:33:22.240Z,49029.12
2019-04-23T12:34:17.995Z,49766.40
2019-04-23T12:36:23.940Z,49766.40
2019-04-23T12:37:21.387Z,50135.04
2019-04-23T12:39:21.986Z,46264.32
2019-04-23T12:40:20.024Z,47923.20
2019-04-23T12:41:21.168Z,48660.48
2019-04-23T12:42:43.654Z,49397.76
2019-04-23T12:44:22.375Z,49029.12
2019-04-23T12:46:27.647Z,49029.12
2019-04-23T12:47:38.069Z,49397.76
2019-04-23T12:50:03.790Z,48660.48
2019-04-23T12:50:41.637Z,48291.84
2019-04-23T12:51:34.833Z,48660.48
2019-04-23T12:52:28.370Z,48291.84
2019-04-23T12:53:32.205Z,46817.28
2019-04-23T12:54:33.532Z,47185.92
2019-04-23T12:55:34.222Z,47001.60
2019-04-23T12:56:30.212Z,47185.92
2019-04-23T12:57:30.770Z,47923.20
2019-04-23T12:59:27.216Z,47554.56
2019-04-23T13:00:25.742Z,47923.20
2019-04-23T13:01:25.594Z,47923.20
2019-04-23T13:02:32.787Z,47923.20
2019-04-23T13:04:24.982Z,47185.92
2019-04-23T13:06:23.674Z,46448.64
2019-04-23T13:07:36.718Z,44605.44
2019-04-23T13:08:33.745Z,41103.36
2019-04-23T13:09:41.882Z,38891.52
2019-04-23T13:10:30.321Z,39260.16
2019-04-23T13:11:36.653Z,39260.16
2019-04-23T13:13:32.414Z,39444.48
2019-04-23T13:14:39.493Z,40734.72
2019-04-23T13:15:33.388Z,42393.60
2019-04-23T13:16:40.286Z,44974.08
2019-04-23T13:17:44.536Z,45342.72
2019-04-23T13:18:34.063Z,45342.72
2019-04-23T13:21:51.968Z,44236.80
2019-04-23T13:22:45.897Z,44236.80
2019-04-23T13:24:32.758Z,42577.92
2019-04-23T13:26:34.183Z,43499.52
2019-04-23T13:27:42.619Z,39997.44
2019-04-23T13:28:34.006Z,41840.64
2019-04-23T13:29:38.113Z,39813.12
2019-04-23T13:30:39.149Z,38522.88
2019-04-23T13:31:29.310Z,39075.84
2019-04-23T13:32:38.379Z,40366.08
2019-04-23T13:33:40.911Z,39997.44
2019-04-23T13:34:41.179Z,40919.04
2019-04-23T13:35:50.601Z,40919.04
2019-04-23T13:36:36.249Z,42762.24
2019-04-23T13:37:43.124Z,42577.92
2019-04-23T13:39:14.746Z,43868.16
2019-04-23T13:39:39.613Z,44052.48
2019-04-23T13:40:46.402Z,43868.16
2019-04-23T13:41:31.693Z,43130.88
2019-04-23T13:43:40.486Z,41656.32
2019-04-23T13:44:42.051Z,42024.96
2019-04-23T13:46:35.655Z,35758.08
2019-04-23T13:47:53.301Z,31703.04
2019-04-23T13:48:37.648Z,32624.64
2019-04-23T13:49:45.305Z,34652.16
2019-04-23T13:51:40.002Z,38338.56
2019-04-23T13:54:56.387Z,40181.76
2019-04-23T13:55:00.959Z,40919.04
2019-04-23T13:55:42.732Z,41103.36
2019-04-23T13:57:13.151Z,40919.04
2019-04-23T13:58:04.932Z,38891.52
2019-04-23T13:58:43.679Z,39260.16
2019-04-23T14:00:58.073Z,38154.24
2019-04-23T14:01:44.668Z,38522.88
2019-04-23T14:03:47.986Z,36679.68
2019-04-23T14:04:55.963Z,35942.40
2019-04-23T14:05:49.391Z,33730.56
2019-04-23T14:06:49.403Z,33546.24
2019-04-23T14:07:54.725Z,33177.60
2019-04-23T14:08:53.652Z,32256.00
2019-04-23T14:09:54.986Z,32256.00
2019-04-23T14:10:52.144Z,29491.20
2019-04-23T14:11:46.676Z,32440.32
2019-04-23T14:13:08.746Z,32256.00
2019-04-23T14:14:55.995Z,33361.92
2019-04-23T14:16:11.633Z,34283.52
2019-04-23T14:17:00.163Z,34652.16
2019-04-23T14:18:17.437Z,34652.16
2019-04-23T14:18:58.398Z,34836.48
2019-04-23T14:19:57.431Z,35020.80
2019-04-23T14:20:55.362Z,34283.52
2019-04-23T14:22:20.976Z,32440.32
2019-04-23T14:25:04.057Z,31518.72
2019-04-23T14:26:10.992Z,29122.56
2019-04-23T14:26:58.313Z,27279.36
2019-04-23T14:28:07.385Z,25436.16
2019-04-23T14:28:55.275Z,25251.84
2019-04-23T14:30:07.302Z,24698.88
2019-04-23T14:30:59.231Z,22947.84
2019-04-23T14:32:03.061Z,22763.52
2019-04-23T14:33:00.350Z,23132.16
2019-04-23T14:34:11.479Z,23040.00
2019-04-23T14:35:10.811Z,22855.68
2019-04-23T14:36:00.496Z,22487.04
2019-04-23T14:38:15.859Z,21104.64
2019-04-23T14:39:05.711Z,20643.84
2019-04-23T14:40:06.116Z,20920.32
2019-04-23T14:41:15.030Z,21288.96
2019-04-23T14:42:06.922Z,21473.28
2019-04-23T14:43:06.589Z,21565.44
2019-04-23T14:44:14.582Z,22026.24
2019-04-23T14:45:09.838Z,22487.04
2019-04-23T14:47:11.949Z,22118.40
2019-04-23T14:48:12.297Z,21749.76
2019-04-23T14:49:03.966Z,21565.44
2019-04-23T14:51:13.444Z,21381.12
2019-04-23T14:52:09.009Z,21565.44
2019-04-23T14:53:13.156Z,21749.76
2019-04-23T14:54:07.286Z,22118.40
2019-04-23T14:56:13.228Z,23132.16
2019-04-23T14:58:17.670Z,23777.28
2019-04-23T14:59:19.461Z,24145.92
2019-04-23T15:00:18.381Z,24330.24
2019-04-23T15:01:24.997Z,24883.20
2019-04-23T15:02:14.492Z,24698.88
2019-04-23T15:02:27.081Z,24514.56
2019-04-23T15:03:32.414Z,24698.88
2019-04-23T15:04:28.921Z,24883.20
2019-04-23T15:07:28.633Z,23961.60
2019-04-23T15:08:39.752Z,23408.64
2019-04-23T15:09:35.187Z,22855.68
2019-04-23T15:10:32.635Z,22671.36
2019-04-23T15:11:38.740Z,21565.44
2019-04-23T15:12:36.638Z,19906.56
2019-04-23T15:14:36.155Z,17879.04
2019-04-23T15:15:33.966Z,17879.04
2019-04-23T15:17:33.962Z,16220.16
2019-04-23T15:18:46.766Z,17510.40
2019-04-23T15:19:49.614Z,18616.32
2019-04-23T15:20:39.239Z,14745.60
2019-04-23T15:22:47.944Z,16404.48
2019-04-23T15:24:37.689Z,15575.04
2019-04-23T15:25:52.968Z,15575.04
2019-04-23T15:28:14.123Z,14100.48
2019-04-23T15:29:28.092Z,15022.08
2019-04-23T15:30:35.414Z,15482.88
2019-04-23T15:31:39.497Z,15390.72
2019-04-23T15:32:46.815Z,14837.76
2019-04-23T15:33:48.984Z,13178.88
2019-04-23T15:34:36.865Z,13178.88
2019-04-23T15:35:57.790Z,13363.20
2019-04-23T15:36:58.073Z,13271.04
2019-04-23T15:37:58.392Z,14192.64
2019-04-23T15:39:46.518Z,15114.24
2019-04-23T15:40:45.258Z,12625.92
2019-04-23T15:41:53.038Z,13639.68
2019-04-23T15:42:52.115Z,14192.64
2019-04-23T15:43:51.124Z,13547.52
2019-04-23T15:44:41.822Z,12994.56
2019-04-23T15:45:50.117Z,11151.36
2019-04-23T15:47:53.381Z,9815.04
2019-04-23T15:48:54.871Z,9262.08
2019-04-23T15:49:43.979Z,9861.12
2019-04-23T15:50:53.850Z,9169.92
2019-04-23T15:51:52.577Z,8478.72
2019-04-23T15:52:55.371Z,8570.88
2019-04-23T15:53:52.599Z,8616.96
2019-04-23T15:54:47.213Z,8847.36
2019-04-23T15:55:56.546Z,8524.80
2019-04-23T15:56:55.302Z,8156.16
2019-04-23T15:59:02.552Z,7787.52
2019-04-23T15:59:48.309Z,7833.60
2019-04-23T16:00:48.218Z,7833.60
2019-04-23T16:01:40.108Z,7971.84
2019-04-23T16:02:22.819Z,8248.32
2019-04-23T16:03:26.782Z,8663.04
2019-04-23T16:04:24.161Z,8801.28
2019-04-23T16:05:23.795Z,8893.44
2019-04-23T16:06:27.272Z,8801.28
2019-04-23T16:07:41.353Z,8248.32
2019-04-23T16:09:05.416Z,8156.16
2019-04-23T16:09:55.650Z,8017.92
2019-04-23T16:11:11.529Z,7787.52
2019-04-23T16:11:48.163Z,7649.28
2019-04-23T16:12:58.273Z,7603.20
2019-04-23T16:14:13.091Z,7557.12
2019-04-23T16:15:58.007Z,7557.12
2019-04-23T16:16:59.751Z,7557.12
2019-04-23T16:18:11.472Z,7511.04
2019-04-23T16:19:00.585Z,7464.96
2019-04-23T16:20:07.744Z,7418.88
2019-04-23T16:21:03.732Z,7372.80
2019-04-23T16:22:01.990Z,7372.80
2019-04-23T16:22:52.969Z,7372.80
2019-04-23T16:24:01.086Z,7464.96
2019-04-23T16:25:02.676Z,7464.96
2019-04-23T16:26:05.506Z,7603.20
2019-04-23T16:27:04.448Z,8064.00
2019-04-23T16:28:03.246Z,8432.64
2019-04-23T16:30:12.839Z,8801.28
2019-04-23T16:31:07.582Z,8893.44
2019-04-23T16:32:08.893Z,8939.52
2019-04-23T16:33:57.330Z,8939.52
2019-04-23T16:35:12.232Z,8985.60
2019-04-23T16:36:21.800Z,9216.00
2019-04-23T16:37:10.197Z,9262.08
2019-04-23T16:38:18.404Z,9308.16
2019-04-23T16:39:07.575Z,8939.52
2019-04-23T16:40:16.315Z,8663.04
2019-04-23T16:41:07.906Z,8478.72
2019-04-23T16:43:08.963Z,8202.24
2019-04-23T16:44:06.740Z,7971.84
2019-04-23T16:45:12.346Z,7787.52
2019-04-23T16:46:07.613Z,7603.20
2019-04-23T16:47:12.608Z,7326.72
2019-04-23T16:48:17.148Z,7004.16
2019-04-23T16:50:11.437Z,6220.80
2019-04-23T16:51:25.271Z,5829.12
2019-04-23T16:52:08.409Z,5621.76
2019-04-23T16:53:15.792Z,5437.44
2019-04-23T16:54:10.325Z,5299.20
2019-04-23T16:55:07.497Z,5276.16
2019-04-23T16:56:38.281Z,5022.72
2019-04-23T16:57:24.353Z,4746.24
2019-04-23T16:58:21.890Z,4538.88
2019-04-23T16:59:15.563Z,4331.52
2019-04-23T17:01:23.111Z,3870.72
2019-04-23T17:02:16.055Z,3686.40
2019-04-23T17:03:19.678Z,3525.12
2019-04-23T17:04:17.724Z,3363.84
2019-04-23T17:05:19.653Z,3202.56
2019-04-23T17:07:06.921Z,2891.52
2019-04-23T17:08:36.919Z,2741.76
2019-04-23T17:10:39.596Z,2499.84
2019-04-23T17:12:13.486Z,2327.04
2019-04-23T17:13:18.347Z,2257.92
2019-04-23T17:15:23.189Z,2131.20
2019-04-23T17:17:15.073Z,2050.56
2019-04-23T17:19:23.902Z,2027.52
2019-04-23T17:20:27.185Z,2016.00
2019-04-23T17:21:16.840Z,2039.04
2019-04-23T17:22:17.843Z,2062.08
2019-04-23T17:24:25.825Z,2085.12
2019-04-23T17:25:20.502Z,2096.64
2019-04-23T17:26:25.630Z,2096.64
2019-04-23T17:27:22.546Z,2096.64
2019-04-23T17:28:24.162Z,2085.12
2019-04-23T17:29:41.938Z,2073.60
2019-04-23T17:30:28.357Z,2062.08
2019-04-23T17:32:36.800Z,2039.04
2019-04-23T17:34:30.868Z,1992.96
2019-04-23T17:35:27.525Z,1969.92
2019-04-23T17:37:29.898Z,1889.28
2019-04-23T17:38:33.661Z,1854.72
2019-04-23T17:39:43.002Z,1808.64
2019-04-23T17:40:44.826Z,1751.04
2019-04-23T17:41:31.192Z,1704.96
2019-04-23T17:42:27.469Z,1658.88
2019-04-23T17:43:35.103Z,1601.28
2019-04-23T17:44:36.735Z,1555.20
2019-04-23T17:45:32.039Z,1497.60
2019-04-23T17:46:27.373Z,1445.76
2019-04-23T17:48:43.773Z,1319.04
2019-04-23T17:49:36.881Z,1261.44
2019-04-23T17:50:32.867Z,1209.60
2019-04-23T17:51:28.130Z,1146.24
2019-04-23T17:52:34.948Z,1077.12
2019-04-23T17:53:48.686Z,990.72
2019-04-23T17:53:49.273Z,1002.24
2019-04-23T17:54:50.779Z,910.08
2019-04-23T17:55:54.873Z,835.20
2019-04-23T17:57:02.624Z,720.00
2019-04-23T17:57:50.081Z,676.80
2019-04-23T17:58:55.035Z,650.88
2019-04-23T18:02:22.318Z,601.92
2019-04-23T18:03:55.606Z,561.60
2019-04-23T18:05:02.831Z,535.68